sensor_id;sensor_type;location;lat;lon;timestamp;P1;durP1;ratioP1;P2;durP2;ratioP2
7320;SDS011;3701;49.346;8.798;2022-08-02T00:01:44;4.17;;;2.13;;
7320;SDS011;3701;49.346;8.798;2022-08-02T00:04:11;2.27;;;2.07;;
7320;SDS011;3701;49.346;8.798;2022-08-02T00:06:37;3.43;;;2.63;;
7320;SDS011;3701;49.346;8.798;2022-08-02T00:09:03;3.20;;;2.53;;
7320;SDS011;3701;49.346;8.798;2022-08-02T00:11:29;2.47;;;2.27;;
7320;SDS011;3701;49.346;8.798;2022-08-02T00:13:55;3.63;;;2.20;;
7320;SDS011;3701;49.346;8.798;2022-08-02T00:16:23;2.40;;;2.20;;
7320;SDS011;3701;49.346;8.798;2022-08-02T00:18:48;2.90;;;2.30;;
7320;SDS011;3701;49.346;8.798;2022-08-02T00:21:13;4.80;;;2.43;;
7320;SDS011;3701;49.346;8.798;2022-08-02T00:23:40;3.80;;;2.80;;
7320;SDS011;3701;49.346;8.798;2022-08-02T00:26:10;3.53;;;2.30;;
7320;SDS011;3701;49.346;8.798;2022-08-02T00:28:40;2.90;;;2.20;;
7320;SDS011;3701;49.346;8.798;2022-08-02T00:31:05;2.97;;;2.67;;
7320;SDS011;3701;49.346;8.798;2022-08-02T00:33:31;2.60;;;2.17;;
7320;SDS011;3701;49.346;8.798;2022-08-02T00:35:58;4.93;;;2.63;;
7320;SDS011;3701;49.346;8.798;2022-08-02T00:38:24;2.77;;;2.50;;
7320;SDS011;3701;49.346;8.798;2022-08-02T00:40:51;2.83;;;2.63;;
7320;SDS011;3701;49.346;8.798;2022-08-02T00:43:17;3.50;;;2.80;;
7320;SDS011;3701;49.346;8.798;2022-08-02T00:45:43;4.53;;;3.00;;
7320;SDS011;3701;49.346;8.798;2022-08-02T00:48:12;4.30;;;2.90;;
7320;SDS011;3701;49.346;8.798;2022-08-02T00:50:38;3.00;;;2.70;;
7320;SDS011;3701;49.346;8.798;2022-08-02T00:53:04;3.40;;;2.83;;
7320;SDS011;3701;49.346;8.798;2022-08-02T00:55:30;3.33;;;2.80;;
7320;SDS011;3701;49.346;8.798;2022-08-02T00:57:56;4.17;;;3.10;;
7320;SDS011;3701;49.346;8.798;2022-08-02T01:00:24;2.73;;;2.53;;
7320;SDS011;3701;49.346;8.798;2022-08-02T01:02:54;2.80;;;2.60;;
7320;SDS011;3701;49.346;8.798;2022-08-02T01:05:19;4.30;;;2.70;;
7320;SDS011;3701;49.346;8.798;2022-08-02T01:07:45;3.43;;;2.50;;
7320;SDS011;3701;49.346;8.798;2022-08-02T01:10:10;3.83;;;2.90;;
7320;SDS011;3701;49.346;8.798;2022-08-02T01:12:36;6.43;;;3.10;;
7320;SDS011;3701;49.346;8.798;2022-08-02T01:15:03;3.90;;;3.27;;
7320;SDS011;3701;49.346;8.798;2022-08-02T01:17:41;4.63;;;3.63;;
7320;SDS011;3701;49.346;8.798;2022-08-02T01:29:36;5.60;;;2.77;;
7320;SDS011;3701;49.346;8.798;2022-08-02T01:32:09;3.00;;;2.70;;
7320;SDS011;3701;49.346;8.798;2022-08-02T01:39:38;3.10;;;2.67;;
7320;SDS011;3701;49.346;8.798;2022-08-02T01:42:08;7.73;;;3.00;;
7320;SDS011;3701;49.346;8.798;2022-08-02T01:44:39;6.30;;;3.10;;
7320;SDS011;3701;49.346;8.798;2022-08-02T01:47:13;2.77;;;2.57;;
7320;SDS011;3701;49.346;8.798;2022-08-02T01:49:59;3.37;;;2.97;;
7320;SDS011;3701;49.346;8.798;2022-08-02T01:52:30;4.30;;;2.70;;
7320;SDS011;3701;49.346;8.798;2022-08-02T01:55:04;4.10;;;3.40;;
7320;SDS011;3701;49.346;8.798;2022-08-02T01:57:36;4.13;;;3.30;;
7320;SDS011;3701;49.346;8.798;2022-08-02T02:00:07;3.40;;;2.93;;
7320;SDS011;3701;49.346;8.798;2022-08-02T02:02:35;3.60;;;3.20;;
7320;SDS011;3701;49.346;8.798;2022-08-02T02:05:04;3.70;;;3.40;;
7320;SDS011;3701;49.346;8.798;2022-08-02T02:07:32;4.43;;;3.67;;
7320;SDS011;3701;49.346;8.798;2022-08-02T02:10:00;4.23;;;3.63;;
7320;SDS011;3701;49.346;8.798;2022-08-02T02:12:27;3.67;;;3.10;;
7320;SDS011;3701;49.346;8.798;2022-08-02T02:14:59;4.97;;;3.40;;
7320;SDS011;3701;49.346;8.798;2022-08-02T02:17:26;5.03;;;3.33;;
7320;SDS011;3701;49.346;8.798;2022-08-02T02:19:56;4.40;;;3.37;;
7320;SDS011;3701;49.346;8.798;2022-08-02T02:22:26;3.30;;;3.00;;
7320;SDS011;3701;49.346;8.798;2022-08-02T02:24:54;3.13;;;2.83;;
7320;SDS011;3701;49.346;8.798;2022-08-02T02:27:19;7.30;;;3.20;;
7320;SDS011;3701;49.346;8.798;2022-08-02T02:29:48;4.20;;;3.53;;
7320;SDS011;3701;49.346;8.798;2022-08-02T02:32:15;3.53;;;3.23;;
7320;SDS011;3701;49.346;8.798;2022-08-02T02:34:43;4.80;;;3.30;;
7320;SDS011;3701;49.346;8.798;2022-08-02T02:37:21;4.27;;;3.37;;
7320;SDS011;3701;49.346;8.798;2022-08-02T02:39:50;6.37;;;3.33;;
7320;SDS011;3701;49.346;8.798;2022-08-02T02:42:19;4.80;;;3.17;;
7320;SDS011;3701;49.346;8.798;2022-08-02T02:44:49;3.63;;;3.00;;
7320;SDS011;3701;49.346;8.798;2022-08-02T02:47:18;4.77;;;3.70;;
7320;SDS011;3701;49.346;8.798;2022-08-02T02:49:45;4.50;;;3.60;;
7320;SDS011;3701;49.346;8.798;2022-08-02T02:52:15;4.73;;;3.87;;
7320;SDS011;3701;49.346;8.798;2022-08-02T02:54:46;5.07;;;3.90;;
7320;SDS011;3701;49.346;8.798;2022-08-02T02:57:17;4.53;;;4.00;;
7320;SDS011;3701;49.346;8.798;2022-08-02T02:59:49;3.97;;;3.57;;
7320;SDS011;3701;49.346;8.798;2022-08-02T03:02:18;5.43;;;3.70;;
7320;SDS011;3701;49.346;8.798;2022-08-02T03:04:44;4.67;;;4.00;;
7320;SDS011;3701;49.346;8.798;2022-08-02T03:07:13;5.10;;;3.73;;
7320;SDS011;3701;49.346;8.798;2022-08-02T03:09:40;5.30;;;3.90;;
7320;SDS011;3701;49.346;8.798;2022-08-02T03:12:06;4.40;;;3.93;;
7320;SDS011;3701;49.346;8.798;2022-08-02T03:14:33;4.40;;;3.90;;
7320;SDS011;3701;49.346;8.798;2022-08-02T03:16:59;4.30;;;3.80;;
7320;SDS011;3701;49.346;8.798;2022-08-02T03:19:24;4.40;;;3.83;;
7320;SDS011;3701;49.346;8.798;2022-08-02T03:21:51;5.40;;;3.60;;
7320;SDS011;3701;49.346;8.798;2022-08-02T03:24:19;6.30;;;3.70;;
7320;SDS011;3701;49.346;8.798;2022-08-02T03:26:44;5.47;;;4.10;;
7320;SDS011;3701;49.346;8.798;2022-08-02T03:29:11;4.77;;;3.67;;
7320;SDS011;3701;49.346;8.798;2022-08-02T03:31:39;5.63;;;4.27;;
7320;SDS011;3701;49.346;8.798;2022-08-02T03:34:11;5.17;;;3.97;;
7320;SDS011;3701;49.346;8.798;2022-08-02T03:36:39;5.50;;;3.97;;
7320;SDS011;3701;49.346;8.798;2022-08-02T03:39:06;8.43;;;4.27;;
7320;SDS011;3701;49.346;8.798;2022-08-02T03:41:32;5.00;;;4.40;;
7320;SDS011;3701;49.346;8.798;2022-08-02T03:44:01;4.83;;;4.33;;
7320;SDS011;3701;49.346;8.798;2022-08-02T03:46:28;6.40;;;4.40;;
7320;SDS011;3701;49.346;8.798;2022-08-02T03:48:58;5.27;;;4.00;;
7320;SDS011;3701;49.346;8.798;2022-08-02T03:51:24;5.50;;;4.47;;
7320;SDS011;3701;49.346;8.798;2022-08-02T03:53:50;5.07;;;4.57;;
7320;SDS011;3701;49.346;8.798;2022-08-02T03:56:16;7.03;;;4.43;;
7320;SDS011;3701;49.346;8.798;2022-08-02T03:58:44;7.63;;;4.23;;
7320;SDS011;3701;49.346;8.798;2022-08-02T04:01:10;9.23;;;4.33;;
7320;SDS011;3701;49.346;8.798;2022-08-02T04:03:35;6.60;;;4.40;;
7320;SDS011;3701;49.346;8.798;2022-08-02T04:06:01;5.67;;;4.43;;
7320;SDS011;3701;49.346;8.798;2022-08-02T04:08:26;7.07;;;4.70;;
7320;SDS011;3701;49.346;8.798;2022-08-02T04:10:51;6.70;;;4.80;;
7320;SDS011;3701;49.346;8.798;2022-08-02T04:13:36;4.73;;;4.33;;
7320;SDS011;3701;49.346;8.798;2022-08-02T04:18:39;5.20;;;4.67;;
7320;SDS011;3701;49.346;8.798;2022-08-02T04:21:16;5.23;;;4.30;;
7320;SDS011;3701;49.346;8.798;2022-08-02T04:23:44;7.50;;;4.73;;
7320;SDS011;3701;49.346;8.798;2022-08-02T04:26:14;5.93;;;4.73;;
7320;SDS011;3701;49.346;8.798;2022-08-02T04:28:40;6.07;;;5.10;;
7320;SDS011;3701;49.346;8.798;2022-08-02T04:31:07;7.20;;;4.47;;
7320;SDS011;3701;49.346;8.798;2022-08-02T04:33:33;5.13;;;4.63;;
7320;SDS011;3701;49.346;8.798;2022-08-02T04:36:02;6.07;;;4.43;;
7320;SDS011;3701;49.346;8.798;2022-08-02T04:38:29;6.60;;;5.10;;
7320;SDS011;3701;49.346;8.798;2022-08-02T04:40:54;7.00;;;4.50;;
7320;SDS011;3701;49.346;8.798;2022-08-02T04:43:22;6.60;;;5.10;;
7320;SDS011;3701;49.346;8.798;2022-08-02T04:45:48;6.27;;;4.90;;
7320;SDS011;3701;49.346;8.798;2022-08-02T04:48:16;5.27;;;4.77;;
7320;SDS011;3701;49.346;8.798;2022-08-02T04:50:41;5.37;;;4.43;;
7320;SDS011;3701;49.346;8.798;2022-08-02T04:53:07;5.90;;;4.90;;
7320;SDS011;3701;49.346;8.798;2022-08-02T04:55:34;6.90;;;4.50;;
7320;SDS011;3701;49.346;8.798;2022-08-02T04:58:00;5.07;;;4.57;;
7320;SDS011;3701;49.346;8.798;2022-08-02T05:00:26;4.80;;;4.30;;
7320;SDS011;3701;49.346;8.798;2022-08-02T05:02:57;9.93;;;4.60;;
7320;SDS011;3701;49.346;8.798;2022-08-02T05:05:23;4.83;;;4.33;;
7320;SDS011;3701;49.346;8.798;2022-08-02T05:07:51;4.73;;;4.33;;
7320;SDS011;3701;49.346;8.798;2022-08-02T05:10:22;6.10;;;4.90;;
7320;SDS011;3701;49.346;8.798;2022-08-02T05:12:49;5.43;;;4.63;;
7320;SDS011;3701;49.346;8.798;2022-08-02T05:15:17;5.53;;;4.50;;
7320;SDS011;3701;49.346;8.798;2022-08-02T05:17:45;11.13;;;4.90;;
7320;SDS011;3701;49.346;8.798;2022-08-02T05:20:15;5.80;;;4.43;;
7320;SDS011;3701;49.346;8.798;2022-08-02T05:22:46;8.13;;;4.23;;
7320;SDS011;3701;49.346;8.798;2022-08-02T05:25:12;5.20;;;4.03;;
7320;SDS011;3701;49.346;8.798;2022-08-02T05:27:38;5.47;;;3.47;;
7320;SDS011;3701;49.346;8.798;2022-08-02T05:30:06;5.80;;;4.30;;
7320;SDS011;3701;49.346;8.798;2022-08-02T05:32:34;6.10;;;4.00;;
7320;SDS011;3701;49.346;8.798;2022-08-02T05:35:09;4.03;;;3.37;;
7320;SDS011;3701;49.346;8.798;2022-08-02T05:37:34;5.90;;;3.43;;
7320;SDS011;3701;49.346;8.798;2022-08-02T05:39:59;5.87;;;3.73;;
7320;SDS011;3701;49.346;8.798;2022-08-02T05:42:30;3.50;;;3.20;;
7320;SDS011;3701;49.346;8.798;2022-08-02T05:44:56;3.70;;;3.40;;
7320;SDS011;3701;49.346;8.798;2022-08-02T05:47:26;3.80;;;3.40;;
7320;SDS011;3701;49.346;8.798;2022-08-02T05:49:51;5.50;;;3.50;;
7320;SDS011;3701;49.346;8.798;2022-08-02T05:52:20;4.20;;;3.40;;
7320;SDS011;3701;49.346;8.798;2022-08-02T05:57:36;3.63;;;3.33;;
7320;SDS011;3701;49.346;8.798;2022-08-02T06:00:08;4.17;;;3.33;;
7320;SDS011;3701;49.346;8.798;2022-08-02T06:05:23;4.60;;;3.40;;
7320;SDS011;3701;49.346;8.798;2022-08-02T06:07:58;4.97;;;3.03;;
7320;SDS011;3701;49.346;8.798;2022-08-02T06:10:26;3.90;;;3.60;;
7320;SDS011;3701;49.346;8.798;2022-08-02T06:13:07;4.10;;;3.70;;
7320;SDS011;3701;49.346;8.798;2022-08-02T06:15:35;4.23;;;3.77;;
7320;SDS011;3701;49.346;8.798;2022-08-02T06:18:04;4.13;;;3.13;;
7320;SDS011;3701;49.346;8.798;2022-08-02T06:20:31;4.10;;;3.67;;
7320;SDS011;3701;49.346;8.798;2022-08-02T06:25:32;3.87;;;3.57;;
7320;SDS011;3701;49.346;8.798;2022-08-02T06:28:02;4.37;;;3.90;;
7320;SDS011;3701;49.346;8.798;2022-08-02T06:30:30;4.10;;;3.37;;
7320;SDS011;3701;49.346;8.798;2022-08-02T06:32:58;8.90;;;3.40;;
7320;SDS011;3701;49.346;8.798;2022-08-02T06:35:40;3.63;;;3.33;;
7320;SDS011;3701;49.346;8.798;2022-08-02T06:38:09;3.57;;;3.27;;
7320;SDS011;3701;49.346;8.798;2022-08-02T06:40:47;3.43;;;3.13;;
7320;SDS011;3701;49.346;8.798;2022-08-02T06:43:35;3.70;;;3.20;;
7320;SDS011;3701;49.346;8.798;2022-08-02T06:46:02;3.40;;;3.10;;
7320;SDS011;3701;49.346;8.798;2022-08-02T06:48:28;3.50;;;3.20;;
7320;SDS011;3701;49.346;8.798;2022-08-02T06:50:57;3.23;;;2.93;;
7320;SDS011;3701;49.346;8.798;2022-08-02T06:53:24;5.50;;;3.10;;
7320;SDS011;3701;49.346;8.798;2022-08-02T06:55:52;3.87;;;2.90;;
7320;SDS011;3701;49.346;8.798;2022-08-02T06:58:17;5.37;;;3.13;;
7320;SDS011;3701;49.346;8.798;2022-08-02T07:00:42;4.03;;;3.27;;
7320;SDS011;3701;49.346;8.798;2022-08-02T07:03:10;4.47;;;3.50;;
7320;SDS011;3701;49.346;8.798;2022-08-02T07:05:38;3.80;;;3.40;;
7320;SDS011;3701;49.346;8.798;2022-08-02T07:08:05;5.17;;;3.17;;
7320;SDS011;3701;49.346;8.798;2022-08-02T07:10:30;3.33;;;3.07;;
7320;SDS011;3701;49.346;8.798;2022-08-02T07:12:55;3.33;;;3.03;;
7320;SDS011;3701;49.346;8.798;2022-08-02T07:15:21;2.90;;;2.30;;
7320;SDS011;3701;49.346;8.798;2022-08-02T07:17:46;3.27;;;2.60;;
7320;SDS011;3701;49.346;8.798;2022-08-02T07:20:11;2.40;;;2.20;;
7320;SDS011;3701;49.346;8.798;2022-08-02T07:22:39;2.53;;;2.33;;
7320;SDS011;3701;49.346;8.798;2022-08-02T07:25:05;2.67;;;2.47;;
7320;SDS011;3701;49.346;8.798;2022-08-02T07:27:31;2.70;;;2.50;;
7320;SDS011;3701;49.346;8.798;2022-08-02T07:29:56;2.73;;;2.30;;
7320;SDS011;3701;49.346;8.798;2022-08-02T07:32:23;2.53;;;2.33;;
7320;SDS011;3701;49.346;8.798;2022-08-02T07:34:51;3.20;;;2.70;;
7320;SDS011;3701;49.346;8.798;2022-08-02T07:37:17;3.30;;;2.67;;
7320;SDS011;3701;49.346;8.798;2022-08-02T07:39:42;2.70;;;2.43;;
7320;SDS011;3701;49.346;8.798;2022-08-02T07:42:08;2.60;;;2.40;;
7320;SDS011;3701;49.346;8.798;2022-08-02T07:44:36;2.77;;;2.57;;
7320;SDS011;3701;49.346;8.798;2022-08-02T07:47:01;2.80;;;2.50;;
7320;SDS011;3701;49.346;8.798;2022-08-02T07:49:28;2.03;;;1.93;;
7320;SDS011;3701;49.346;8.798;2022-08-02T07:51:56;3.30;;;2.30;;
7320;SDS011;3701;49.346;8.798;2022-08-02T07:54:27;2.60;;;2.20;;
7320;SDS011;3701;49.346;8.798;2022-08-02T07:56:52;2.33;;;2.13;;
7320;SDS011;3701;49.346;8.798;2022-08-02T07:59:20;3.13;;;2.20;;
7320;SDS011;3701;49.346;8.798;2022-08-02T08:01:46;2.23;;;2.13;;
7320;SDS011;3701;49.346;8.798;2022-08-02T08:04:13;2.20;;;2.07;;
7320;SDS011;3701;49.346;8.798;2022-08-02T08:06:39;2.40;;;1.90;;
7320;SDS011;3701;49.346;8.798;2022-08-02T08:09:05;2.93;;;1.80;;
7320;SDS011;3701;49.346;8.798;2022-08-02T08:11:30;2.80;;;2.50;;
7320;SDS011;3701;49.346;8.798;2022-08-02T08:13:55;2.33;;;2.07;;
7320;SDS011;3701;49.346;8.798;2022-08-02T08:16:23;2.20;;;2.00;;
7320;SDS011;3701;49.346;8.798;2022-08-02T08:18:55;1.93;;;1.83;;
7320;SDS011;3701;49.346;8.798;2022-08-02T08:21:20;2.60;;;1.90;;
7320;SDS011;3701;49.346;8.798;2022-08-02T08:23:46;2.17;;;2.00;;
7320;SDS011;3701;49.346;8.798;2022-08-02T08:26:14;2.40;;;1.90;;
7320;SDS011;3701;49.346;8.798;2022-08-02T08:28:40;1.83;;;1.73;;
7320;SDS011;3701;49.346;8.798;2022-08-02T08:31:08;2.03;;;1.70;;
7320;SDS011;3701;49.346;8.798;2022-08-02T08:33:33;1.90;;;1.80;;
7320;SDS011;3701;49.346;8.798;2022-08-02T08:35:58;2.50;;;1.63;;
7320;SDS011;3701;49.346;8.798;2022-08-02T08:38:26;1.73;;;1.63;;
7320;SDS011;3701;49.346;8.798;2022-08-02T08:40:51;1.50;;;1.40;;
7320;SDS011;3701;49.346;8.798;2022-08-02T08:43:19;2.00;;;1.90;;
7320;SDS011;3701;49.346;8.798;2022-08-02T08:45:44;2.07;;;1.97;;
7320;SDS011;3701;49.346;8.798;2022-08-02T08:48:13;1.57;;;1.47;;
7320;SDS011;3701;49.346;8.798;2022-08-02T08:50:45;1.50;;;1.40;;
7320;SDS011;3701;49.346;8.798;2022-08-02T08:53:15;1.60;;;1.50;;
7320;SDS011;3701;49.346;8.798;2022-08-02T08:55:42;2.10;;;1.47;;
7320;SDS011;3701;49.346;8.798;2022-08-02T08:58:11;2.10;;;1.40;;
7320;SDS011;3701;49.346;8.798;2022-08-02T09:00:38;2.03;;;1.50;;
7320;SDS011;3701;49.346;8.798;2022-08-02T09:03:08;1.60;;;1.50;;
7320;SDS011;3701;49.346;8.798;2022-08-02T09:05:34;1.55;;;1.30;;
7320;SDS011;3701;49.346;8.798;2022-08-02T09:08:01;4.10;;;1.42;;
7320;SDS011;3701;49.346;8.798;2022-08-02T09:15:41;1.40;;;1.30;;
7320;SDS011;3701;49.346;8.798;2022-08-02T09:18:07;1.25;;;1.15;;
7320;SDS011;3701;49.346;8.798;2022-08-02T09:20:34;1.92;;;1.40;;
7320;SDS011;3701;49.346;8.798;2022-08-02T09:23:14;1.52;;;1.42;;
7320;SDS011;3701;49.346;8.798;2022-08-02T09:25:40;1.38;;;1.27;;
7320;SDS011;3701;49.346;8.798;2022-08-02T09:28:05;1.45;;;1.35;;
7320;SDS011;3701;49.346;8.798;2022-08-02T09:30:40;1.67;;;1.58;;
7320;SDS011;3701;49.346;8.798;2022-08-02T09:33:09;1.45;;;1.35;;
7320;SDS011;3701;49.346;8.798;2022-08-02T09:35:37;2.17;;;1.65;;
7320;SDS011;3701;49.346;8.798;2022-08-02T09:40:37;1.85;;;1.38;;
7320;SDS011;3701;49.346;8.798;2022-08-02T09:43:04;1.60;;;1.30;;
7320;SDS011;3701;49.346;8.798;2022-08-02T09:45:31;1.63;;;1.52;;
7320;SDS011;3701;49.346;8.798;2022-08-02T09:47:58;1.27;;;1.17;;
7320;SDS011;3701;49.346;8.798;2022-08-02T09:50:32;1.38;;;1.27;;
7320;SDS011;3701;49.346;8.798;2022-08-02T09:53:01;1.33;;;1.23;;
7320;SDS011;3701;49.346;8.798;2022-08-02T09:55:28;1.52;;;1.42;;
7320;SDS011;3701;49.346;8.798;2022-08-02T09:57:54;1.58;;;1.48;;
7320;SDS011;3701;49.346;8.798;2022-08-02T10:00:22;1.40;;;1.30;;
7320;SDS011;3701;49.346;8.798;2022-08-02T10:03:06;1.30;;;1.20;;
7320;SDS011;3701;49.346;8.798;2022-08-02T10:08:30;1.55;;;1.30;;
7320;SDS011;3701;49.346;8.798;2022-08-02T10:10:57;1.55;;;1.40;;
7320;SDS011;3701;49.346;8.798;2022-08-02T10:13:37;1.40;;;1.30;;
7320;SDS011;3701;49.346;8.798;2022-08-02T10:16:05;2.00;;;1.40;;
7320;SDS011;3701;49.346;8.798;2022-08-02T10:18:35;1.63;;;1.48;;
7320;SDS011;3701;49.346;8.798;2022-08-02T10:21:02;1.60;;;1.50;;
7320;SDS011;3701;49.346;8.798;2022-08-02T10:23:38;1.52;;;1.40;;
7320;SDS011;3701;49.346;8.798;2022-08-02T10:26:06;1.42;;;1.33;;
7320;SDS011;3701;49.346;8.798;2022-08-02T10:28:35;1.70;;;1.40;;
7320;SDS011;3701;49.346;8.798;2022-08-02T10:31:02;1.30;;;1.20;;
7320;SDS011;3701;49.346;8.798;2022-08-02T10:33:30;1.45;;;1.35;;
7320;SDS011;3701;49.346;8.798;2022-08-02T10:35:59;1.40;;;1.30;;
7320;SDS011;3701;49.346;8.798;2022-08-02T10:38:26;3.20;;;1.30;;
7320;SDS011;3701;49.346;8.798;2022-08-02T10:40:53;2.53;;;1.50;;
7320;SDS011;3701;49.346;8.798;2022-08-02T10:49:09;2.95;;;1.58;;
7320;SDS011;3701;49.346;8.798;2022-08-02T10:56:58;2.78;;;1.70;;
7320;SDS011;3701;49.346;8.798;2022-08-02T10:59:28;1.90;;;1.80;;
7320;SDS011;3701;49.346;8.798;2022-08-02T11:02:01;1.90;;;1.70;;
7320;SDS011;3701;49.346;8.798;2022-08-02T11:07:07;1.90;;;1.70;;
7320;SDS011;3701;49.346;8.798;2022-08-02T11:09:36;1.70;;;1.60;;
7320;SDS011;3701;49.346;8.798;2022-08-02T11:14:30;2.20;;;2.00;;
7320;SDS011;3701;49.346;8.798;2022-08-02T11:19:26;2.00;;;1.58;;
7320;SDS011;3701;49.346;8.798;2022-08-02T11:24:34;6.07;;;2.10;;
7320;SDS011;3701;49.346;8.798;2022-08-02T11:27:01;2.55;;;2.35;;
7320;SDS011;3701;49.346;8.798;2022-08-02T11:29:31;4.03;;;2.15;;
7320;SDS011;3701;49.346;8.798;2022-08-02T11:32:07;2.37;;;1.90;;
7320;SDS011;3701;49.346;8.798;2022-08-02T11:34:48;2.63;;;2.13;;
7320;SDS011;3701;49.346;8.798;2022-08-02T11:37:31;4.93;;;1.93;;
7320;SDS011;3701;49.346;8.798;2022-08-02T11:40:04;2.23;;;2.13;;
7320;SDS011;3701;49.346;8.798;2022-08-02T11:42:42;2.10;;;1.90;;
7320;SDS011;3701;49.346;8.798;2022-08-02T11:45:09;1.90;;;1.80;;
7320;SDS011;3701;49.346;8.798;2022-08-02T11:47:45;1.83;;;1.73;;
7320;SDS011;3701;49.346;8.798;2022-08-02T11:50:16;1.73;;;1.63;;
7320;SDS011;3701;49.346;8.798;2022-08-02T11:52:48;2.80;;;1.60;;
7320;SDS011;3701;49.346;8.798;2022-08-02T11:55:17;1.58;;;1.48;;
7320;SDS011;3701;49.346;8.798;2022-08-02T11:57:59;2.53;;;1.88;;
7320;SDS011;3701;49.346;8.798;2022-08-02T12:00:25;2.75;;;1.73;;
7320;SDS011;3701;49.346;8.798;2022-08-02T12:02:51;2.92;;;1.75;;
7320;SDS011;3701;49.346;8.798;2022-08-02T12:05:21;1.50;;;1.30;;
7320;SDS011;3701;49.346;8.798;2022-08-02T12:07:53;1.35;;;1.25;;
7320;SDS011;3701;49.346;8.798;2022-08-02T12:10:23;2.13;;;1.60;;
7320;SDS011;3701;49.346;8.798;2022-08-02T12:15:28;1.75;;;1.65;;
7320;SDS011;3701;49.346;8.798;2022-08-02T12:17:54;1.40;;;1.20;;
7320;SDS011;3701;49.346;8.798;2022-08-02T12:20:38;1.92;;;1.23;;
7320;SDS011;3701;49.346;8.798;2022-08-02T12:23:03;1.42;;;1.33;;
7320;SDS011;3701;49.346;8.798;2022-08-02T12:25:29;1.38;;;1.27;;
7320;SDS011;3701;49.346;8.798;2022-08-02T12:28:18;1.70;;;1.40;;
7320;SDS011;3701;49.346;8.798;2022-08-02T12:30:49;1.52;;;1.42;;
7320;SDS011;3701;49.346;8.798;2022-08-02T12:33:16;2.63;;;1.40;;
7320;SDS011;3701;49.346;8.798;2022-08-02T12:35:44;2.78;;;1.80;;
7320;SDS011;3701;49.346;8.798;2022-08-02T12:38:10;1.30;;;1.20;;
7320;SDS011;3701;49.346;8.798;2022-08-02T12:40:40;1.48;;;1.38;;
7320;SDS011;3701;49.346;8.798;2022-08-02T12:43:07;1.30;;;1.20;;
7320;SDS011;3701;49.346;8.798;2022-08-02T12:45:49;1.60;;;1.50;;
7320;SDS011;3701;49.346;8.798;2022-08-02T12:48:15;1.35;;;1.25;;
7320;SDS011;3701;49.346;8.798;2022-08-02T12:50:53;2.35;;;1.50;;
7320;SDS011;3701;49.346;8.798;2022-08-02T12:53:21;1.83;;;1.38;;
7320;SDS011;3701;49.346;8.798;2022-08-02T12:55:58;1.35;;;1.25;;
7320;SDS011;3701;49.346;8.798;2022-08-02T12:58:25;1.30;;;1.20;;
7320;SDS011;3701;49.346;8.798;2022-08-02T13:00:54;2.03;;;1.58;;
7320;SDS011;3701;49.346;8.798;2022-08-02T13:03:24;1.33;;;1.20;;
7320;SDS011;3701;49.346;8.798;2022-08-02T13:05:52;1.45;;;1.20;;
7320;SDS011;3701;49.346;8.798;2022-08-02T13:08:20;1.15;;;1.05;;
7320;SDS011;3701;49.346;8.798;2022-08-02T13:10:48;2.15;;;1.10;;
7320;SDS011;3701;49.346;8.798;2022-08-02T13:13:13;1.20;;;1.10;;
7320;SDS011;3701;49.346;8.798;2022-08-02T13:15:38;1.50;;;1.40;;
7320;SDS011;3701;49.346;8.798;2022-08-02T13:18:06;1.75;;;1.45;;
7320;SDS011;3701;49.346;8.798;2022-08-02T13:20:32;2.15;;;1.35;;
7320;SDS011;3701;49.346;8.798;2022-08-02T13:22:57;1.50;;;1.27;;
7320;SDS011;3701;49.346;8.798;2022-08-02T13:25:22;2.85;;;1.30;;
7320;SDS011;3701;49.346;8.798;2022-08-02T13:27:50;1.40;;;1.30;;
7320;SDS011;3701;49.346;8.798;2022-08-02T13:30:19;1.80;;;1.10;;
7320;SDS011;3701;49.346;8.798;2022-08-02T13:32:44;1.65;;;1.27;;
7320;SDS011;3701;49.346;8.798;2022-08-02T13:35:14;1.40;;;1.30;;
7320;SDS011;3701;49.346;8.798;2022-08-02T13:37:44;1.83;;;1.13;;
7320;SDS011;3701;49.346;8.798;2022-08-02T13:40:11;2.10;;;1.40;;
7320;SDS011;3701;49.346;8.798;2022-08-02T13:42:39;1.30;;;1.20;;
7320;SDS011;3701;49.346;8.798;2022-08-02T13:45:05;2.63;;;1.33;;
7320;SDS011;3701;49.346;8.798;2022-08-02T13:47:34;2.85;;;1.20;;
7320;SDS011;3701;49.346;8.798;2022-08-02T13:50:05;2.13;;;1.10;;
7320;SDS011;3701;49.346;8.798;2022-08-02T13:52:33;1.33;;;1.23;;
7320;SDS011;3701;49.346;8.798;2022-08-02T13:55:00;1.20;;;1.10;;
7320;SDS011;3701;49.346;8.798;2022-08-02T13:57:26;1.77;;;1.10;;
7320;SDS011;3701;49.346;8.798;2022-08-02T13:59:51;2.05;;;1.20;;
7320;SDS011;3701;49.346;8.798;2022-08-02T14:02:17;1.65;;;1.20;;
7320;SDS011;3701;49.346;8.798;2022-08-02T14:04:44;2.38;;;1.30;;
7320;SDS011;3701;49.346;8.798;2022-08-02T14:07:12;2.08;;;1.45;;
7320;SDS011;3701;49.346;8.798;2022-08-02T14:09:37;1.95;;;1.50;;
7320;SDS011;3701;49.346;8.798;2022-08-02T14:12:08;2.22;;;1.20;;
7320;SDS011;3701;49.346;8.798;2022-08-02T14:14:34;1.27;;;1.17;;
7320;SDS011;3701;49.346;8.798;2022-08-02T14:17:01;1.55;;;1.30;;
7320;SDS011;3701;49.346;8.798;2022-08-02T14:19:29;1.20;;;1.10;;
7320;SDS011;3701;49.346;8.798;2022-08-02T14:21:59;2.50;;;1.13;;
7320;SDS011;3701;49.346;8.798;2022-08-02T14:24:24;1.58;;;1.48;;
7320;SDS011;3701;49.346;8.798;2022-08-02T14:26:50;1.55;;;1.02;;
7320;SDS011;3701;49.346;8.798;2022-08-02T14:29:15;1.45;;;1.10;;
7320;SDS011;3701;49.346;8.798;2022-08-02T14:31:41;1.40;;;1.30;;
7320;SDS011;3701;49.346;8.798;2022-08-02T14:34:07;3.13;;;1.30;;
7320;SDS011;3701;49.346;8.798;2022-08-02T14:36:32;1.27;;;1.10;;
7320;SDS011;3701;49.346;8.798;2022-08-02T14:39:00;1.27;;;1.17;;
7320;SDS011;3701;49.346;8.798;2022-08-02T14:41:25;3.35;;;1.20;;
7320;SDS011;3701;49.346;8.798;2022-08-02T14:43:53;1.52;;;1.27;;
7320;SDS011;3701;49.346;8.798;2022-08-02T14:46:28;2.15;;;1.23;;
7320;SDS011;3701;49.346;8.798;2022-08-02T14:48:57;1.60;;;1.40;;
7320;SDS011;3701;49.346;8.798;2022-08-02T14:51:28;2.15;;;1.20;;
7320;SDS011;3701;49.346;8.798;2022-08-02T14:54:03;2.65;;;1.20;;
7320;SDS011;3701;49.346;8.798;2022-08-02T14:56:33;1.30;;;1.20;;
7320;SDS011;3701;49.346;8.798;2022-08-02T14:59:01;1.30;;;1.20;;
7320;SDS011;3701;49.346;8.798;2022-08-02T15:01:26;1.20;;;1.10;;
7320;SDS011;3701;49.346;8.798;2022-08-02T15:03:51;1.10;;;1.00;;
7320;SDS011;3701;49.346;8.798;2022-08-02T15:06:20;1.33;;;1.23;;
7320;SDS011;3701;49.346;8.798;2022-08-02T15:08:55;1.80;;;1.10;;
7320;SDS011;3701;49.346;8.798;2022-08-02T15:11:20;6.07;;;1.17;;
7320;SDS011;3701;49.346;8.798;2022-08-02T15:13:46;2.08;;;1.02;;
7320;SDS011;3701;49.346;8.798;2022-08-02T15:16:11;3.15;;;1.27;;
7320;SDS011;3701;49.346;8.798;2022-08-02T15:18:39;3.53;;;1.10;;
7320;SDS011;3701;49.346;8.798;2022-08-02T15:21:04;1.77;;;1.20;;
7320;SDS011;3701;49.346;8.798;2022-08-02T15:23:30;2.45;;;1.35;;
7320;SDS011;3701;49.346;8.798;2022-08-02T15:25:57;1.42;;;1.10;;
7320;SDS011;3701;49.346;8.798;2022-08-02T15:28:23;1.55;;;1.10;;
7320;SDS011;3701;49.346;8.798;2022-08-02T15:30:53;3.08;;;1.35;;
7320;SDS011;3701;49.346;8.798;2022-08-02T15:33:20;4.93;;;1.30;;
7320;SDS011;3701;49.346;8.798;2022-08-02T15:35:49;1.20;;;1.05;;
7320;SDS011;3701;49.346;8.798;2022-08-02T15:38:15;1.77;;;1.10;;
7320;SDS011;3701;49.346;8.798;2022-08-02T15:40:40;1.55;;;1.10;;
7320;SDS011;3701;49.346;8.798;2022-08-02T15:43:07;3.67;;;1.40;;
7320;SDS011;3701;49.346;8.798;2022-08-02T15:45:33;2.08;;;1.27;;
7320;SDS011;3701;49.346;8.798;2022-08-02T15:48:01;3.83;;;1.20;;
7320;SDS011;3701;49.346;8.798;2022-08-02T15:50:30;5.35;;;1.15;;
7320;SDS011;3701;49.346;8.798;2022-08-02T15:52:57;1.30;;;1.03;;
7320;SDS011;3701;49.346;8.798;2022-08-02T15:55:23;2.22;;;1.20;;
7320;SDS011;3701;49.346;8.798;2022-08-02T15:57:48;2.03;;;1.27;;
7320;SDS011;3701;49.346;8.798;2022-08-02T16:00:18;3.83;;;1.20;;
7320;SDS011;3701;49.346;8.798;2022-08-02T16:02:44;1.47;;;1.37;;
7320;SDS011;3701;49.346;8.798;2022-08-02T16:05:15;2.00;;;1.10;;
7320;SDS011;3701;49.346;8.798;2022-08-02T16:07:41;1.80;;;1.00;;
7320;SDS011;3701;49.346;8.798;2022-08-02T16:10:09;1.67;;;1.40;;
7320;SDS011;3701;49.346;8.798;2022-08-02T16:12:37;1.30;;;1.10;;
7320;SDS011;3701;49.346;8.798;2022-08-02T16:15:03;1.43;;;1.20;;
7320;SDS011;3701;49.346;8.798;2022-08-02T16:17:29;1.87;;;1.07;;
7320;SDS011;3701;49.346;8.798;2022-08-02T16:19:56;3.00;;;1.20;;
7320;SDS011;3701;49.346;8.798;2022-08-02T16:22:24;2.00;;;1.00;;